West Paducah, KY

1:07 AM CDT on August 29, 2015 (GMT -0500)
Heath | | Change Station
CLOSE
Current Station
Personal Weather Station
Location: West Paducah, KY
Elevation: 404 ft
Nearby Weather Stations

Elev 404 ft 37.07 °N, 88.81 °W | Updated 2 hours ago

Clear
Clear
67.3 °F
Feels Like 67.3 °F
N
0.0
Wind Variable Wind from North
Gusts 0.0 mph

Today
High -- | Low -- °F
--% Chance of Precip.
Yesterday
High -- | Low -- °F
Precip. -- in
6:23 AM 7:28 PM
Full, 100% visible
Pressure 30.02 in
Visibility 10.0 miles
Clouds Clear
Dew Point 57 °F
Humidity 69%
Rainfall in
Snow Depth Not available.
UV 0 out of 12
Pollen 10.10 out of 12
Air Quality Not available.
Flu Activity Not available.
METAR KPAH 290553Z AUTO 16004KT 10SM CLR 21/18 A3003 RMK AO2 SLP165 T02110183 10272 20183 403060122 58006
Pressure 30.02 in
Visibility 10.0 miles
Clouds Clear
Dew Point 57 °F
Humidity 69%
Rainfall in
Snow Depth Not available.
UV 0 out of 12
Pollen 10.10 out of 12
Air Quality Not available.
Flu Activity Not available.
METAR KPAH 290553Z AUTO 16004KT 10SM CLR 21/18 A3003 RMK AO2 SLP165 T02110183 10272 20183 403060122 58006

10-Day Weather Forecast

×

Almanac

Astronomy

Aug. 29, 2015 Rise Set
Actual Time
Civil Twilight
Nautical Twilight
Astronomical Twilight
Moon
Length of Visible Light
Length of Day
Tomorrow will be .
, % of the Moon is Illuminated

Today's Extremes

State Highs State Lows

Community

WunderPhotos

Upload Photos

1,850,622 photos uploaded!

WunderBlogs® & News

Nearby

Air Quality

  Air Quality AQ Index Pollutant
Not available.

Snow Depth

Station Depth Elevation

Earthquake Activity

City Distance Mag. Time & Date
Minimum magnitude displayed is 2.5.

Coastal Water Temperatures

Place Temperature

Stations

Nearby Weather Stations

Station Location Temp. Windchill Dew Point Humidity Wind Precip. Elev Updated Type